sensor_id;sensor_type;location;lat;lon;timestamp;P1;durP1;ratioP1;P2;durP2;ratioP2
49578;SDS011;35483;50.828;3.228;2022-12-18T00:01:18;64.20;;;37.72;;
49578;SDS011;35483;50.828;3.228;2022-12-18T00:03:45;70.18;;;38.60;;
49578;SDS011;35483;50.828;3.228;2022-12-18T00:06:12;68.57;;;39.97;;
49578;SDS011;35483;50.828;3.228;2022-12-18T00:08:39;67.20;;;38.30;;
49578;SDS011;35483;50.828;3.228;2022-12-18T00:11:06;69.63;;;39.17;;
49578;SDS011;35483;50.828;3.228;2022-12-18T00:13:33;72.88;;;40.38;;
49578;SDS011;35483;50.828;3.228;2022-12-18T00:16:04;68.13;;;37.30;;
49578;SDS011;35483;50.828;3.228;2022-12-18T00:18:34;70.40;;;38.70;;
49578;SDS011;35483;50.828;3.228;2022-12-18T00:21:02;71.63;;;38.03;;
49578;SDS011;35483;50.828;3.228;2022-12-18T00:23:29;66.95;;;37.83;;
49578;SDS011;35483;50.828;3.228;2022-12-18T00:25:59;71.15;;;39.58;;
49578;SDS011;35483;50.828;3.228;2022-12-18T00:28:27;72.85;;;40.40;;
49578;SDS011;35483;50.828;3.228;2022-12-18T00:31:04;69.25;;;39.30;;
49578;SDS011;35483;50.828;3.228;2022-12-18T00:33:31;69.35;;;38.78;;
49578;SDS011;35483;50.828;3.228;2022-12-18T00:36:05;70.05;;;36.85;;
49578;SDS011;35483;50.828;3.228;2022-12-18T00:38:33;68.88;;;38.28;;
49578;SDS011;35483;50.828;3.228;2022-12-18T00:40:59;64.63;;;37.22;;
49578;SDS011;35483;50.828;3.228;2022-12-18T00:43:25;62.60;;;37.47;;
49578;SDS011;35483;50.828;3.228;2022-12-18T00:45:53;64.93;;;37.63;;
49578;SDS011;35483;50.828;3.228;2022-12-18T00:48:19;63.67;;;36.90;;
49578;SDS011;35483;50.828;3.228;2022-12-18T00:50:46;62.90;;;35.42;;
49578;SDS011;35483;50.828;3.228;2022-12-18T00:53:13;69.55;;;37.70;;
49578;SDS011;35483;50.828;3.228;2022-12-18T00:55:40;62.50;;;36.90;;
49578;SDS011;35483;50.828;3.228;2022-12-18T00:58:07;59.80;;;35.17;;
49578;SDS011;35483;50.828;3.228;2022-12-18T01:00:33;60.88;;;35.15;;
49578;SDS011;35483;50.828;3.228;2022-12-18T01:02:59;67.60;;;36.97;;
49578;SDS011;35483;50.828;3.228;2022-12-18T01:05:25;63.70;;;37.38;;
49578;SDS011;35483;50.828;3.228;2022-12-18T01:07:52;64.43;;;37.92;;
49578;SDS011;35483;50.828;3.228;2022-12-18T01:10:18;67.45;;;38.88;;
49578;SDS011;35483;50.828;3.228;2022-12-18T01:12:44;62.00;;;37.10;;
49578;SDS011;35483;50.828;3.228;2022-12-18T01:15:11;59.10;;;36.40;;
49578;SDS011;35483;50.828;3.228;2022-12-18T01:17:39;55.47;;;34.03;;
49578;SDS011;35483;50.828;3.228;2022-12-18T01:20:05;61.35;;;37.38;;
49578;SDS011;35483;50.828;3.228;2022-12-18T01:22:32;61.63;;;34.20;;
49578;SDS011;35483;50.828;3.228;2022-12-18T01:24:58;53.75;;;33.08;;
49578;SDS011;35483;50.828;3.228;2022-12-18T01:27:24;57.25;;;33.15;;
49578;SDS011;35483;50.828;3.228;2022-12-18T01:29:50;60.25;;;34.90;;
49578;SDS011;35483;50.828;3.228;2022-12-18T01:32:16;59.50;;;34.40;;
49578;SDS011;35483;50.828;3.228;2022-12-18T01:34:42;54.28;;;32.63;;
49578;SDS011;35483;50.828;3.228;2022-12-18T01:37:08;63.25;;;35.72;;
49578;SDS011;35483;50.828;3.228;2022-12-18T01:39:34;58.15;;;35.78;;
49578;SDS011;35483;50.828;3.228;2022-12-18T01:42:02;55.65;;;32.97;;
49578;SDS011;35483;50.828;3.228;2022-12-18T01:47:36;58.13;;;33.92;;
49578;SDS011;35483;50.828;3.228;2022-12-18T01:50:08;55.47;;;33.17;;
49578;SDS011;35483;50.828;3.228;2022-12-18T01:52:46;52.83;;;31.65;;
49578;SDS011;35483;50.828;3.228;2022-12-18T01:55:18;58.47;;;33.00;;
49578;SDS011;35483;50.828;3.228;2022-12-18T01:57:47;53.10;;;32.00;;
49578;SDS011;35483;50.828;3.228;2022-12-18T02:00:16;54.38;;;32.90;;
49578;SDS011;35483;50.828;3.228;2022-12-18T02:02:44;54.95;;;32.60;;
49578;SDS011;35483;50.828;3.228;2022-12-18T02:05:12;57.80;;;33.58;;
49578;SDS011;35483;50.828;3.228;2022-12-18T02:10:57;54.85;;;31.45;;
49578;SDS011;35483;50.828;3.228;2022-12-18T02:13:50;55.65;;;33.83;;
49578;SDS011;35483;50.828;3.228;2022-12-18T02:16:39;52.97;;;32.85;;
49578;SDS011;35483;50.828;3.228;2022-12-18T02:27:53;49.92;;;32.28;;
49578;SDS011;35483;50.828;3.228;2022-12-18T02:30:22;49.70;;;30.58;;
49578;SDS011;35483;50.828;3.228;2022-12-18T02:32:49;45.55;;;31.10;;
49578;SDS011;35483;50.828;3.228;2022-12-18T02:35:20;49.00;;;30.90;;
49578;SDS011;35483;50.828;3.228;2022-12-18T02:37:49;52.05;;;32.65;;
49578;SDS011;35483;50.828;3.228;2022-12-18T02:40:18;45.38;;;31.70;;
49578;SDS011;35483;50.828;3.228;2022-12-18T02:42:45;46.30;;;29.80;;
49578;SDS011;35483;50.828;3.228;2022-12-18T02:45:11;47.42;;;30.40;;
49578;SDS011;35483;50.828;3.228;2022-12-18T02:47:38;46.10;;;30.45;;
49578;SDS011;35483;50.828;3.228;2022-12-18T02:50:18;49.17;;;31.90;;
49578;SDS011;35483;50.828;3.228;2022-12-18T03:01:24;45.72;;;28.25;;
49578;SDS011;35483;50.828;3.228;2022-12-18T03:04:10;43.95;;;28.33;;
49578;SDS011;35483;50.828;3.228;2022-12-18T03:09:40;40.55;;;26.15;;
49578;SDS011;35483;50.828;3.228;2022-12-18T03:12:27;39.40;;;25.85;;
49578;SDS011;35483;50.828;3.228;2022-12-18T03:15:08;43.42;;;27.48;;
49578;SDS011;35483;50.828;3.228;2022-12-18T03:18:06;43.78;;;28.30;;
49578;SDS011;35483;50.828;3.228;2022-12-18T03:20:41;43.42;;;29.38;;
49578;SDS011;35483;50.828;3.228;2022-12-18T03:23:11;38.53;;;28.35;;
49578;SDS011;35483;50.828;3.228;2022-12-18T03:25:41;41.40;;;29.48;;
49578;SDS011;35483;50.828;3.228;2022-12-18T03:28:10;37.35;;;27.38;;
49578;SDS011;35483;50.828;3.228;2022-12-18T03:30:40;40.60;;;27.38;;
49578;SDS011;35483;50.828;3.228;2022-12-18T03:33:25;39.25;;;26.67;;
49578;SDS011;35483;50.828;3.228;2022-12-18T03:35:54;38.72;;;27.10;;
49578;SDS011;35483;50.828;3.228;2022-12-18T03:38:21;37.97;;;26.38;;
49578;SDS011;35483;50.828;3.228;2022-12-18T03:40:56;36.33;;;26.35;;
49578;SDS011;35483;50.828;3.228;2022-12-18T03:43:34;38.45;;;24.90;;
49578;SDS011;35483;50.828;3.228;2022-12-18T03:46:24;34.20;;;24.23;;
49578;SDS011;35483;50.828;3.228;2022-12-18T03:49:01;35.40;;;25.65;;
49578;SDS011;35483;50.828;3.228;2022-12-18T03:51:35;35.03;;;24.50;;
49578;SDS011;35483;50.828;3.228;2022-12-18T03:54:06;38.85;;;25.05;;
49578;SDS011;35483;50.828;3.228;2022-12-18T03:56:42;36.50;;;26.00;;
49578;SDS011;35483;50.828;3.228;2022-12-18T03:59:13;34.35;;;25.25;;
49578;SDS011;35483;50.828;3.228;2022-12-18T04:01:42;32.97;;;23.75;;
49578;SDS011;35483;50.828;3.228;2022-12-18T04:04:12;31.10;;;23.30;;
49578;SDS011;35483;50.828;3.228;2022-12-18T04:06:40;32.30;;;22.83;;
49578;SDS011;35483;50.828;3.228;2022-12-18T04:09:07;29.98;;;21.58;;
49578;SDS011;35483;50.828;3.228;2022-12-18T04:11:33;33.38;;;23.92;;
49578;SDS011;35483;50.828;3.228;2022-12-18T04:13:59;31.83;;;22.88;;
49578;SDS011;35483;50.828;3.228;2022-12-18T04:16:25;29.95;;;22.77;;
49578;SDS011;35483;50.828;3.228;2022-12-18T04:18:51;34.08;;;23.00;;
49578;SDS011;35483;50.828;3.228;2022-12-18T04:21:18;32.33;;;21.63;;
49578;SDS011;35483;50.828;3.228;2022-12-18T04:23:45;31.05;;;21.83;;
49578;SDS011;35483;50.828;3.228;2022-12-18T04:26:11;27.85;;;21.75;;
49578;SDS011;35483;50.828;3.228;2022-12-18T04:28:37;31.88;;;22.08;;
49578;SDS011;35483;50.828;3.228;2022-12-18T04:31:04;30.48;;;22.58;;
49578;SDS011;35483;50.828;3.228;2022-12-18T04:33:31;29.13;;;22.13;;
49578;SDS011;35483;50.828;3.228;2022-12-18T04:35:57;33.20;;;22.65;;
49578;SDS011;35483;50.828;3.228;2022-12-18T04:38:23;29.35;;;22.52;;
49578;SDS011;35483;50.828;3.228;2022-12-18T04:40:49;30.65;;;21.13;;
49578;SDS011;35483;50.828;3.228;2022-12-18T04:43:15;28.73;;;21.05;;
49578;SDS011;35483;50.828;3.228;2022-12-18T04:45:41;27.08;;;20.50;;
49578;SDS011;35483;50.828;3.228;2022-12-18T04:48:07;29.15;;;20.70;;
49578;SDS011;35483;50.828;3.228;2022-12-18T04:50:33;25.63;;;20.90;;
49578;SDS011;35483;50.828;3.228;2022-12-18T04:52:59;29.92;;;20.92;;
49578;SDS011;35483;50.828;3.228;2022-12-18T04:55:26;26.60;;;20.92;;
49578;SDS011;35483;50.828;3.228;2022-12-18T04:57:53;26.95;;;19.98;;
49578;SDS011;35483;50.828;3.228;2022-12-18T05:00:19;28.08;;;19.55;;
49578;SDS011;35483;50.828;3.228;2022-12-18T05:02:45;27.00;;;19.75;;
49578;SDS011;35483;50.828;3.228;2022-12-18T05:05:11;31.25;;;19.23;;
49578;SDS011;35483;50.828;3.228;2022-12-18T05:07:38;27.48;;;20.17;;
49578;SDS011;35483;50.828;3.228;2022-12-18T05:10:04;26.65;;;18.45;;
49578;SDS011;35483;50.828;3.228;2022-12-18T05:12:31;27.42;;;18.88;;
49578;SDS011;35483;50.828;3.228;2022-12-18T05:14:57;28.05;;;19.02;;
49578;SDS011;35483;50.828;3.228;2022-12-18T05:17:23;25.35;;;19.17;;
49578;SDS011;35483;50.828;3.228;2022-12-18T05:19:49;23.70;;;17.48;;
49578;SDS011;35483;50.828;3.228;2022-12-18T05:22:15;24.38;;;18.48;;
49578;SDS011;35483;50.828;3.228;2022-12-18T05:24:41;24.85;;;18.23;;
49578;SDS011;35483;50.828;3.228;2022-12-18T05:27:07;24.42;;;18.05;;
49578;SDS011;35483;50.828;3.228;2022-12-18T05:29:33;28.08;;;19.58;;
49578;SDS011;35483;50.828;3.228;2022-12-18T05:31:59;23.77;;;18.40;;
49578;SDS011;35483;50.828;3.228;2022-12-18T05:34:25;24.58;;;17.95;;
49578;SDS011;35483;50.828;3.228;2022-12-18T05:36:51;24.80;;;18.75;;
49578;SDS011;35483;50.828;3.228;2022-12-18T05:39:22;25.25;;;18.80;;
49578;SDS011;35483;50.828;3.228;2022-12-18T05:41:49;25.00;;;16.85;;
49578;SDS011;35483;50.828;3.228;2022-12-18T05:44:15;25.02;;;17.55;;
49578;SDS011;35483;50.828;3.228;2022-12-18T05:46:41;23.13;;;16.52;;
49578;SDS011;35483;50.828;3.228;2022-12-18T05:49:06;22.35;;;17.30;;
49578;SDS011;35483;50.828;3.228;2022-12-18T05:51:32;23.95;;;16.83;;
49578;SDS011;35483;50.828;3.228;2022-12-18T05:53:58;23.67;;;17.40;;
49578;SDS011;35483;50.828;3.228;2022-12-18T05:56:24;23.42;;;16.77;;
49578;SDS011;35483;50.828;3.228;2022-12-18T05:58:51;21.60;;;15.60;;
49578;SDS011;35483;50.828;3.228;2022-12-18T06:01:20;23.13;;;16.45;;
49578;SDS011;35483;50.828;3.228;2022-12-18T06:03:51;19.88;;;15.90;;
49578;SDS011;35483;50.828;3.228;2022-12-18T06:06:19;21.77;;;15.52;;
49578;SDS011;35483;50.828;3.228;2022-12-18T06:08:49;22.75;;;16.15;;
49578;SDS011;35483;50.828;3.228;2022-12-18T06:11:17;22.45;;;16.23;;
49578;SDS011;35483;50.828;3.228;2022-12-18T06:13:49;22.48;;;15.15;;
49578;SDS011;35483;50.828;3.228;2022-12-18T06:16:16;22.70;;;16.40;;
49578;SDS011;35483;50.828;3.228;2022-12-18T06:18:42;19.50;;;15.55;;
49578;SDS011;35483;50.828;3.228;2022-12-18T06:21:08;20.98;;;15.70;;
49578;SDS011;35483;50.828;3.228;2022-12-18T06:23:34;20.10;;;15.55;;
49578;SDS011;35483;50.828;3.228;2022-12-18T06:26:05;21.27;;;15.82;;
49578;SDS011;35483;50.828;3.228;2022-12-18T06:28:32;19.50;;;16.17;;
49578;SDS011;35483;50.828;3.228;2022-12-18T06:30:57;19.65;;;15.60;;
49578;SDS011;35483;50.828;3.228;2022-12-18T06:33:26;19.73;;;15.05;;
49578;SDS011;35483;50.828;3.228;2022-12-18T06:35:53;22.48;;;15.77;;
49578;SDS011;35483;50.828;3.228;2022-12-18T06:38:19;21.00;;;14.90;;
49578;SDS011;35483;50.828;3.228;2022-12-18T06:40:45;19.35;;;15.30;;
49578;SDS011;35483;50.828;3.228;2022-12-18T06:43:11;19.70;;;15.13;;
49578;SDS011;35483;50.828;3.228;2022-12-18T06:45:37;19.35;;;14.50;;
49578;SDS011;35483;50.828;3.228;2022-12-18T06:48:03;18.70;;;15.05;;
49578;SDS011;35483;50.828;3.228;2022-12-18T06:50:29;19.25;;;14.90;;
49578;SDS011;35483;50.828;3.228;2022-12-18T06:52:55;18.10;;;13.55;;
49578;SDS011;35483;50.828;3.228;2022-12-18T06:55:21;17.42;;;13.32;;
49578;SDS011;35483;50.828;3.228;2022-12-18T06:57:47;17.80;;;13.55;;
49578;SDS011;35483;50.828;3.228;2022-12-18T07:00:13;19.08;;;12.90;;
49578;SDS011;35483;50.828;3.228;2022-12-18T07:02:39;18.17;;;13.52;;
49578;SDS011;35483;50.828;3.228;2022-12-18T07:05:07;16.50;;;12.95;;
49578;SDS011;35483;50.828;3.228;2022-12-18T07:07:34;16.45;;;13.50;;
49578;SDS011;35483;50.828;3.228;2022-12-18T07:10:00;16.15;;;12.65;;
49578;SDS011;35483;50.828;3.228;2022-12-18T07:12:26;16.52;;;12.57;;
49578;SDS011;35483;50.828;3.228;2022-12-18T07:14:52;19.05;;;13.68;;
49578;SDS011;35483;50.828;3.228;2022-12-18T07:17:18;18.33;;;13.32;;
49578;SDS011;35483;50.828;3.228;2022-12-18T07:19:44;18.95;;;14.30;;
49578;SDS011;35483;50.828;3.228;2022-12-18T07:22:10;19.00;;;13.43;;
49578;SDS011;35483;50.828;3.228;2022-12-18T07:24:36;18.70;;;13.63;;
49578;SDS011;35483;50.828;3.228;2022-12-18T07:27:02;18.63;;;13.70;;
49578;SDS011;35483;50.828;3.228;2022-12-18T07:29:28;16.02;;;12.77;;
49578;SDS011;35483;50.828;3.228;2022-12-18T07:31:54;17.65;;;13.55;;
49578;SDS011;35483;50.828;3.228;2022-12-18T07:34:21;19.90;;;14.68;;
49578;SDS011;35483;50.828;3.228;2022-12-18T07:36:47;18.23;;;13.90;;
49578;SDS011;35483;50.828;3.228;2022-12-18T07:39:13;18.55;;;14.05;;
49578;SDS011;35483;50.828;3.228;2022-12-18T07:41:40;19.67;;;14.93;;
49578;SDS011;35483;50.828;3.228;2022-12-18T07:44:11;19.65;;;14.07;;
49578;SDS011;35483;50.828;3.228;2022-12-18T07:46:37;20.70;;;14.75;;
49578;SDS011;35483;50.828;3.228;2022-12-18T07:49:04;22.77;;;17.13;;
49578;SDS011;35483;50.828;3.228;2022-12-18T07:51:30;19.45;;;15.93;;
49578;SDS011;35483;50.828;3.228;2022-12-18T07:53:56;22.02;;;16.83;;
49578;SDS011;35483;50.828;3.228;2022-12-18T07:56:22;21.08;;;15.43;;
49578;SDS011;35483;50.828;3.228;2022-12-18T07:58:48;21.33;;;15.57;;
49578;SDS011;35483;50.828;3.228;2022-12-18T08:01:14;21.73;;;16.27;;
49578;SDS011;35483;50.828;3.228;2022-12-18T08:03:40;23.08;;;16.55;;
49578;SDS011;35483;50.828;3.228;2022-12-18T08:06:07;20.67;;;15.85;;
49578;SDS011;35483;50.828;3.228;2022-12-18T08:08:34;18.58;;;15.32;;
49578;SDS011;35483;50.828;3.228;2022-12-18T08:11:01;17.55;;;15.20;;
49578;SDS011;35483;50.828;3.228;2022-12-18T08:13:27;21.27;;;15.95;;
49578;SDS011;35483;50.828;3.228;2022-12-18T08:16:04;20.67;;;15.93;;
49578;SDS011;35483;50.828;3.228;2022-12-18T08:18:35;20.52;;;16.02;;
49578;SDS011;35483;50.828;3.228;2022-12-18T08:21:12;18.08;;;14.15;;
49578;SDS011;35483;50.828;3.228;2022-12-18T08:23:40;20.58;;;15.40;;
49578;SDS011;35483;50.828;3.228;2022-12-18T08:26:06;18.70;;;14.95;;
49578;SDS011;35483;50.828;3.228;2022-12-18T08:28:32;19.33;;;15.57;;
49578;SDS011;35483;50.828;3.228;2022-12-18T08:30:58;22.58;;;17.15;;
49578;SDS011;35483;50.828;3.228;2022-12-18T08:33:24;26.45;;;20.80;;
49578;SDS011;35483;50.828;3.228;2022-12-18T08:35:51;25.85;;;18.80;;
49578;SDS011;35483;50.828;3.228;2022-12-18T08:38:18;23.33;;;18.55;;
49578;SDS011;35483;50.828;3.228;2022-12-18T08:40:44;22.50;;;17.90;;
49578;SDS011;35483;50.828;3.228;2022-12-18T08:43:10;20.58;;;15.63;;
49578;SDS011;35483;50.828;3.228;2022-12-18T08:45:54;20.05;;;14.63;;
49578;SDS011;35483;50.828;3.228;2022-12-18T08:48:20;19.95;;;14.40;;
49578;SDS011;35483;50.828;3.228;2022-12-18T08:50:54;20.00;;;14.52;;
49578;SDS011;35483;50.828;3.228;2022-12-18T08:53:25;18.35;;;14.82;;
49578;SDS011;35483;50.828;3.228;2022-12-18T08:55:52;16.25;;;13.88;;
49578;SDS011;35483;50.828;3.228;2022-12-18T08:58:19;18.25;;;14.18;;
49578;SDS011;35483;50.828;3.228;2022-12-18T09:00:45;19.90;;;14.77;;
49578;SDS011;35483;50.828;3.228;2022-12-18T09:03:14;19.60;;;14.38;;
49578;SDS011;35483;50.828;3.228;2022-12-18T09:05:42;21.63;;;15.27;;
49578;SDS011;35483;50.828;3.228;2022-12-18T09:08:10;18.58;;;15.00;;
49578;SDS011;35483;50.828;3.228;2022-12-18T09:10:43;20.55;;;15.38;;
49578;SDS011;35483;50.828;3.228;2022-12-18T09:13:10;22.30;;;17.80;;
49578;SDS011;35483;50.828;3.228;2022-12-18T09:15:43;21.08;;;15.63;;
49578;SDS011;35483;50.828;3.228;2022-12-18T09:18:12;21.50;;;16.40;;
49578;SDS011;35483;50.828;3.228;2022-12-18T09:20:39;23.05;;;16.45;;
49578;SDS011;35483;50.828;3.228;2022-12-18T09:23:06;19.33;;;15.27;;
49578;SDS011;35483;50.828;3.228;2022-12-18T09:25:33;20.83;;;16.58;;
49578;SDS011;35483;50.828;3.228;2022-12-18T09:28:01;21.20;;;15.82;;
49578;SDS011;35483;50.828;3.228;2022-12-18T09:30:28;20.98;;;15.38;;
49578;SDS011;35483;50.828;3.228;2022-12-18T09:32:55;22.77;;;16.27;;
49578;SDS011;35483;50.828;3.228;2022-12-18T09:35:21;26.67;;;18.02;;
49578;SDS011;35483;50.828;3.228;2022-12-18T09:37:48;22.98;;;17.73;;
49578;SDS011;35483;50.828;3.228;2022-12-18T09:40:17;24.38;;;18.55;;
49578;SDS011;35483;50.828;3.228;2022-12-18T09:43:09;23.35;;;17.80;;
49578;SDS011;35483;50.828;3.228;2022-12-18T09:45:43;24.17;;;18.50;;
49578;SDS011;35483;50.828;3.228;2022-12-18T09:48:22;27.05;;;17.75;;
49578;SDS011;35483;50.828;3.228;2022-12-18T09:50:51;23.17;;;18.27;;
49578;SDS011;35483;50.828;3.228;2022-12-18T09:53:23;23.05;;;17.92;;
49578;SDS011;35483;50.828;3.228;2022-12-18T09:55:51;24.52;;;18.42;;
49578;SDS011;35483;50.828;3.228;2022-12-18T10:01:14;25.35;;;18.38;;
49578;SDS011;35483;50.828;3.228;2022-12-18T10:06:16;23.85;;;19.45;;
49578;SDS011;35483;50.828;3.228;2022-12-18T10:11:57;23.50;;;18.05;;
49578;SDS011;35483;50.828;3.228;2022-12-18T10:23:26;25.88;;;20.65;;
49578;SDS011;35483;50.828;3.228;2022-12-18T10:28:31;27.75;;;20.08;;
49578;SDS011;35483;50.828;3.228;2022-12-18T10:30:58;24.70;;;19.13;;
49578;SDS011;35483;50.828;3.228;2022-12-18T10:33:27;26.17;;;20.00;;
49578;SDS011;35483;50.828;3.228;2022-12-18T10:35:55;24.27;;;18.98;;
49578;SDS011;35483;50.828;3.228;2022-12-18T10:38:25;26.05;;;18.50;;
49578;SDS011;35483;50.828;3.228;2022-12-18T10:40:58;27.08;;;19.63;;
49578;SDS011;35483;50.828;3.228;2022-12-18T10:43:28;23.73;;;18.37;;
49578;SDS011;35483;50.828;3.228;2022-12-18T10:48:34;24.85;;;19.33;;
49578;SDS011;35483;50.828;3.228;2022-12-18T10:51:04;24.65;;;19.27;;
49578;SDS011;35483;50.828;3.228;2022-12-18T10:53:32;26.33;;;21.30;;
49578;SDS011;35483;50.828;3.228;2022-12-18T10:56:00;29.60;;;21.27;;
49578;SDS011;35483;50.828;3.228;2022-12-18T10:58:36;26.25;;;19.92;;
49578;SDS011;35483;50.828;3.228;2022-12-18T11:01:13;27.58;;;20.98;;
49578;SDS011;35483;50.828;3.228;2022-12-18T11:03:43;27.30;;;21.38;;
49578;SDS011;35483;50.828;3.228;2022-12-18T11:06:15;28.90;;;20.77;;
49578;SDS011;35483;50.828;3.228;2022-12-18T11:11:49;31.38;;;22.60;;
49578;SDS011;35483;50.828;3.228;2022-12-18T11:14:24;30.13;;;22.10;;
49578;SDS011;35483;50.828;3.228;2022-12-18T11:16:52;30.80;;;21.90;;
49578;SDS011;35483;50.828;3.228;2022-12-18T11:21:59;30.85;;;23.17;;
49578;SDS011;35483;50.828;3.228;2022-12-18T11:26:53;31.08;;;22.42;;
49578;SDS011;35483;50.828;3.228;2022-12-18T11:29:28;28.90;;;21.75;;
49578;SDS011;35483;50.828;3.228;2022-12-18T11:32:12;32.80;;;24.02;;
49578;SDS011;35483;50.828;3.228;2022-12-18T11:35:00;33.00;;;24.05;;
49578;SDS011;35483;50.828;3.228;2022-12-18T11:37:34;34.20;;;24.48;;
49578;SDS011;35483;50.828;3.228;2022-12-18T11:40:13;32.63;;;24.63;;
49578;SDS011;35483;50.828;3.228;2022-12-18T11:43:02;31.92;;;23.88;;
49578;SDS011;35483;50.828;3.228;2022-12-18T11:45:29;31.67;;;23.25;;
49578;SDS011;35483;50.828;3.228;2022-12-18T11:48:01;32.53;;;23.20;;
49578;SDS011;35483;50.828;3.228;2022-12-18T11:53:12;32.72;;;22.73;;
49578;SDS011;35483;50.828;3.228;2022-12-18T11:58:44;34.75;;;23.70;;
49578;SDS011;35483;50.828;3.228;2022-12-18T12:10:06;33.42;;;22.98;;
49578;SDS011;35483;50.828;3.228;2022-12-18T12:12:39;33.47;;;22.73;;
49578;SDS011;35483;50.828;3.228;2022-12-18T12:15:39;34.35;;;24.95;;
49578;SDS011;35483;50.828;3.228;2022-12-18T12:18:34;36.08;;;24.58;;
49578;SDS011;35483;50.828;3.228;2022-12-18T12:21:07;34.13;;;22.92;;
49578;SDS011;35483;50.828;3.228;2022-12-18T12:24:20;31.13;;;23.05;;
49578;SDS011;35483;50.828;3.228;2022-12-18T12:32:16;32.83;;;22.75;;
49578;SDS011;35483;50.828;3.228;2022-12-18T12:37:49;31.42;;;22.45;;
49578;SDS011;35483;50.828;3.228;2022-12-18T12:40:33;32.47;;;23.35;;
49578;SDS011;35483;50.828;3.228;2022-12-18T12:43:12;34.72;;;23.60;;
49578;SDS011;35483;50.828;3.228;2022-12-18T12:45:56;39.42;;;24.73;;
49578;SDS011;35483;50.828;3.228;2022-12-18T12:48:40;35.20;;;25.35;;
49578;SDS011;35483;50.828;3.228;2022-12-18T12:51:26;55.05;;;25.92;;
49578;SDS011;35483;50.828;3.228;2022-12-18T12:53:56;37.88;;;25.10;;
49578;SDS011;35483;50.828;3.228;2022-12-18T12:56:24;34.58;;;21.25;;
49578;SDS011;35483;50.828;3.228;2022-12-18T13:04:30;32.92;;;22.13;;
49578;SDS011;35483;50.828;3.228;2022-12-18T13:07:12;34.20;;;23.45;;
49578;SDS011;35483;50.828;3.228;2022-12-18T13:15:29;30.73;;;21.70;;
49578;SDS011;35483;50.828;3.228;2022-12-18T13:20:38;29.85;;;22.10;;
49578;SDS011;35483;50.828;3.228;2022-12-18T13:28:23;36.47;;;23.92;;
49578;SDS011;35483;50.828;3.228;2022-12-18T13:30:59;33.88;;;23.52;;
49578;SDS011;35483;50.828;3.228;2022-12-18T13:39:11;34.58;;;22.33;;
49578;SDS011;35483;50.828;3.228;2022-12-18T13:41:47;35.13;;;24.75;;
49578;SDS011;35483;50.828;3.228;2022-12-18T13:44:31;34.17;;;22.88;;
49578;SDS011;35483;50.828;3.228;2022-12-18T13:47:03;36.92;;;24.48;;
49578;SDS011;35483;50.828;3.228;2022-12-18T13:49:36;34.47;;;22.60;;
49578;SDS011;35483;50.828;3.228;2022-12-18T13:52:22;33.10;;;22.55;;
49578;SDS011;35483;50.828;3.228;2022-12-18T13:54:51;34.90;;;22.95;;
49578;SDS011;35483;50.828;3.228;2022-12-18T13:57:25;31.58;;;21.63;;
49578;SDS011;35483;50.828;3.228;2022-12-18T13:59:55;32.08;;;22.90;;
49578;SDS011;35483;50.828;3.228;2022-12-18T14:02:22;37.00;;;22.92;;
49578;SDS011;35483;50.828;3.228;2022-12-18T14:04:50;33.45;;;22.38;;
49578;SDS011;35483;50.828;3.228;2022-12-18T14:07:17;36.38;;;23.48;;
49578;SDS011;35483;50.828;3.228;2022-12-18T14:09:58;33.83;;;21.65;;
49578;SDS011;35483;50.828;3.228;2022-12-18T14:12:32;37.40;;;22.67;;
49578;SDS011;35483;50.828;3.228;2022-12-18T14:20:46;32.67;;;21.67;;
49578;SDS011;35483;50.828;3.228;2022-12-18T14:26:03;34.70;;;23.08;;
49578;SDS011;35483;50.828;3.228;2022-12-18T14:28:50;34.63;;;22.40;;
49578;SDS011;35483;50.828;3.228;2022-12-18T14:31:19;34.50;;;21.67;;
49578;SDS011;35483;50.828;3.228;2022-12-18T14:33:47;36.35;;;22.70;;
49578;SDS011;35483;50.828;3.228;2022-12-18T14:36:17;32.67;;;21.58;;
49578;SDS011;35483;50.828;3.228;2022-12-18T14:38:48;33.70;;;22.52;;
49578;SDS011;35483;50.828;3.228;2022-12-18T14:41:16;31.70;;;21.85;;
49578;SDS011;35483;50.828;3.228;2022-12-18T14:43:44;31.23;;;21.08;;
49578;SDS011;35483;50.828;3.228;2022-12-18T14:48:50;34.95;;;22.58;;
49578;SDS011;35483;50.828;3.228;2022-12-18T14:53:47;36.53;;;25.17;;
49578;SDS011;35483;50.828;3.228;2022-12-18T14:56:27;36.75;;;23.17;;
49578;SDS011;35483;50.828;3.228;2022-12-18T14:59:00;33.03;;;23.40;;
49578;SDS011;35483;50.828;3.228;2022-12-18T15:04:02;40.33;;;25.25;;
49578;SDS011;35483;50.828;3.228;2022-12-18T15:06:34;36.13;;;24.80;;
49578;SDS011;35483;50.828;3.228;2022-12-18T15:09:23;38.47;;;25.25;;
49578;SDS011;35483;50.828;3.228;2022-12-18T15:11:49;36.60;;;24.88;;
49578;SDS011;35483;50.828;3.228;2022-12-18T15:14:35;38.63;;;25.10;;
49578;SDS011;35483;50.828;3.228;2022-12-18T15:17:06;36.80;;;24.30;;
49578;SDS011;35483;50.828;3.228;2022-12-18T15:19:45;37.85;;;25.20;;
49578;SDS011;35483;50.828;3.228;2022-12-18T15:22:34;39.15;;;25.60;;
49578;SDS011;35483;50.828;3.228;2022-12-18T15:25:00;39.47;;;25.92;;
49578;SDS011;35483;50.828;3.228;2022-12-18T15:27:32;46.03;;;27.60;;
49578;SDS011;35483;50.828;3.228;2022-12-18T15:32:34;40.15;;;26.40;;
49578;SDS011;35483;50.828;3.228;2022-12-18T15:35:02;36.42;;;23.15;;
49578;SDS011;35483;50.828;3.228;2022-12-18T15:37:29;41.78;;;26.98;;
49578;SDS011;35483;50.828;3.228;2022-12-18T15:39:55;41.40;;;27.02;;
49578;SDS011;35483;50.828;3.228;2022-12-18T15:42:21;36.20;;;24.92;;
49578;SDS011;35483;50.828;3.228;2022-12-18T15:45:05;39.38;;;26.95;;
49578;SDS011;35483;50.828;3.228;2022-12-18T15:47:33;41.15;;;25.48;;
49578;SDS011;35483;50.828;3.228;2022-12-18T15:49:59;39.78;;;24.75;;
49578;SDS011;35483;50.828;3.228;2022-12-18T15:52:25;35.88;;;23.83;;
49578;SDS011;35483;50.828;3.228;2022-12-18T15:54:51;42.78;;;28.33;;
49578;SDS011;35483;50.828;3.228;2022-12-18T15:57:36;40.42;;;25.30;;
49578;SDS011;35483;50.828;3.228;2022-12-18T16:00:02;39.42;;;25.85;;
49578;SDS011;35483;50.828;3.228;2022-12-18T16:02:28;36.70;;;24.23;;
49578;SDS011;35483;50.828;3.228;2022-12-18T16:04:54;38.10;;;24.70;;
49578;SDS011;35483;50.828;3.228;2022-12-18T16:07:20;43.47;;;28.23;;
49578;SDS011;35483;50.828;3.228;2022-12-18T16:09:46;38.63;;;25.20;;
49578;SDS011;35483;50.828;3.228;2022-12-18T16:12:16;39.05;;;24.17;;
49578;SDS011;35483;50.828;3.228;2022-12-18T16:14:44;35.55;;;23.45;;
49578;SDS011;35483;50.828;3.228;2022-12-18T16:17:11;35.90;;;22.27;;
49578;SDS011;35483;50.828;3.228;2022-12-18T16:19:38;33.65;;;21.30;;
49578;SDS011;35483;50.828;3.228;2022-12-18T16:22:04;35.40;;;22.73;;
49578;SDS011;35483;50.828;3.228;2022-12-18T16:24:31;39.92;;;24.42;;
49578;SDS011;35483;50.828;3.228;2022-12-18T16:26:59;35.72;;;23.35;;
49578;SDS011;35483;50.828;3.228;2022-12-18T16:29:26;35.13;;;22.20;;
49578;SDS011;35483;50.828;3.228;2022-12-18T16:31:53;34.92;;;21.83;;
49578;SDS011;35483;50.828;3.228;2022-12-18T16:34:21;33.95;;;21.65;;
49578;SDS011;35483;50.828;3.228;2022-12-18T16:36:51;36.72;;;23.02;;
49578;SDS011;35483;50.828;3.228;2022-12-18T16:39:18;33.33;;;21.67;;
49578;SDS011;35483;50.828;3.228;2022-12-18T16:41:45;39.40;;;23.63;;